Time;durP1;ratioP1;P1;durP2;ratioP2;P2;SDS_P1;SDS_P2;PMS_P1;PMS_P2;Temp;Humidity;BMP_temperature;BMP_pressure;BME280_temperature;BME280_humidity;BME280_pressure;Samples;Min_cycle;Max_cycle;Signal;HPM_P1;HPM_P2
2022/05/21 00:02:07;;;;;;;18.13;6.95;;;10.00;99.90;;;;;;5005634;28;20045;-68
2022/05/21 00:04:34;;;;;;;15.77;6.20;;;10.00;99.90;;;;;;5001050;28;20045;-68
2022/05/21 00:06:59;;;;;;;13.85;6.05;;;10.00;99.90;;;;;;5002704;28;20042;-68
2022/05/21 00:09:27;;;;;;;12.98;6.95;;;10.00;99.90;;;;;;4999994;28;20096;-68
2022/05/21 00:11:54;;;;;;;11.55;6.68;;;10.10;99.90;;;;;;5001948;28;20042;-68
2022/05/21 00:14:20;;;;;;;23.15;8.88;;;10.00;99.90;;;;;;5002311;28;20041;-68
2022/05/21 00:16:47;;;;;;;17.33;9.60;;;10.10;99.90;;;;;;5002033;28;20060;-67
2022/05/21 00:19:13;;;;;;;23.55;11.68;;;10.10;99.90;;;;;;5001684;28;20046;-67
2022/05/21 00:21:39;;;;;;;22.27;14.18;;;10.00;99.90;;;;;;5006428;28;20170;-67
2022/05/21 00:24:05;;;;;;;22.55;14.18;;;10.00;99.90;;;;;;5001262;28;20038;-67
2022/05/21 00:26:31;;;;;;;33.38;17.17;;;10.00;99.90;;;;;;5001572;28;20120;-67
2022/05/21 00:28:56;;;;;;;36.15;19.73;;;10.10;99.90;;;;;;4997019;28;20258;-67
2022/05/21 00:31:23;;;;;;;43.00;21.55;;;10.10;99.90;;;;;;5004743;28;20034;-67
2022/05/21 00:33:49;;;;;;;41.58;20.73;;;10.10;99.90;;;;;;4998590;28;20117;-68
2022/05/21 00:36:16;;;;;;;48.83;25.33;;;10.10;99.90;;;;;;5000040;28;20421;-68
2022/05/21 00:38:42;;;;;;;46.60;25.45;;;10.20;99.90;;;;;;4999795;28;20061;-68
2022/05/21 00:41:11;;;;;;;49.00;24.98;;;10.30;99.90;;;;;;5004731;28;20057;-68
2022/05/21 00:43:53;;;;;;;67.43;31.45;;;10.40;99.90;;;;;;4998660;28;20074;-68
2022/05/21 00:46:26;;;;;;;56.45;30.27;;;10.40;99.90;;;;;;4999019;28;20519;-68
2022/05/21 00:49:13;;;;;;;72.03;32.92;;;10.60;99.90;;;;;;4989298;28;20064;-68
2022/05/21 00:51:53;;;;;;;61.95;31.50;;;10.60;99.90;;;;;;5003346;28;20050;-68
2022/05/21 00:54:23;;;;;;;64.28;32.28;;;10.60;99.90;;;;;;4999016;28;20046;-68
2022/05/21 00:56:55;;;;;;;52.67;28.40;;;10.70;99.90;;;;;;5003824;28;20046;-68
2022/05/21 01:02:07;;;;;;;63.03;32.35;;;10.70;99.90;;;;;;5001101;28;20053;-68
2022/05/21 01:04:34;;;;;;;53.47;29.73;;;10.60;99.90;;;;;;4997886;28;20075;-68
2022/05/21 01:07:01;;;;;;;48.60;30.08;;;10.70;99.90;;;;;;5003002;28;20173;-68
2022/05/21 01:09:28;;;;;;;72.82;34.88;;;10.70;99.90;;;;;;4984886;28;20053;-68
2022/05/21 01:11:55;;;;;;;63.10;33.20;;;10.70;99.90;;;;;;5007142;28;20074;-68
2022/05/21 01:14:22;;;;;;;70.97;38.10;;;10.80;99.90;;;;;;4997921;28;20125;-68
2022/05/21 01:16:50;;;;;;;61.42;35.85;;;10.80;99.90;;;;;;5008325;28;20111;-68
2022/05/21 01:19:16;;;;;;;72.68;37.05;;;10.90;99.90;;;;;;5002849;28;20540;-68
2022/05/21 01:21:43;;;;;;;88.47;39.25;;;11.00;99.90;;;;;;5002624;28;20370;-68
2022/05/21 01:24:10;;;;;;;66.72;36.38;;;11.00;99.90;;;;;;5003604;28;20050;-68
2022/05/21 01:26:38;;;;;;;62.72;36.38;;;11.10;99.90;;;;;;5003162;28;20096;-68
2022/05/21 01:29:09;;;;;;;97.88;41.63;;;11.10;99.90;;;;;;5005256;28;20068;-68
2022/05/21 01:31:36;;;;;;;77.15;37.60;;;11.20;99.90;;;;;;5005892;28;20154;-68
2022/05/21 01:34:02;;;;;;;65.35;35.58;;;11.20;99.90;;;;;;5005112;28;20038;-68
2022/05/21 01:36:27;;;;;;;73.32;39.45;;;11.30;99.90;;;;;;5006697;28;20114;-68
2022/05/21 01:38:53;;;;;;;59.25;36.08;;;11.30;99.90;;;;;;5005973;28;20065;-68
2022/05/21 01:41:19;;;;;;;58.80;35.95;;;11.30;99.90;;;;;;5006926;28;20037;-68
2022/05/21 01:46:29;;;;;;;65.95;36.53;;;11.40;99.90;;;;;;5001317;28;20162;-67
2022/05/21 01:48:56;;;;;;;78.28;39.35;;;11.50;99.90;;;;;;5001032;28;20071;-68
2022/05/21 01:51:21;;;;;;;79.15;39.88;;;11.50;99.90;;;;;;5007273;28;20520;-67
2022/05/21 01:53:47;;;;;;;57.30;35.25;;;11.50;99.90;;;;;;5007882;28;20171;-67
2022/05/21 01:56:14;;;;;;;69.10;38.53;;;11.50;99.90;;;;;;5001465;28;20528;-67
2022/05/21 01:58:40;;;;;;;66.68;37.33;;;11.50;99.90;;;;;;5005924;28;20038;-67
2022/05/21 02:01:07;;;;;;;55.88;34.00;;;11.60;99.90;;;;;;5004438;28;20046;-67
2022/05/21 02:03:34;;;;;;;88.20;44.63;;;11.60;99.90;;;;;;5005069;28;20060;-67
2022/05/21 02:06:00;;;;;;;85.38;43.63;;;11.60;99.90;;;;;;5006244;28;20034;-67
2022/05/21 02:08:25;;;;;;;69.30;39.90;;;11.60;99.90;;;;;;5005398;28;20050;-68
2022/05/21 02:10:52;;;;;;;74.07;40.83;;;11.70;99.90;;;;;;4994281;28;20369;-68
2022/05/21 02:13:24;;;;;;;66.50;39.45;;;11.70;99.90;;;;;;5001248;28;20077;-68
2022/05/21 02:15:50;;;;;;;69.30;41.47;;;11.70;99.90;;;;;;5000598;28;20505;-68
2022/05/21 02:18:16;;;;;;;75.40;41.95;;;11.70;99.90;;;;;;5006102;28;20183;-68
2022/05/21 02:20:42;;;;;;;80.38;43.17;;;11.80;99.90;;;;;;4983101;28;20038;-68
2022/05/21 02:23:10;;;;;;;64.32;39.15;;;11.80;99.90;;;;;;5003970;28;20096;-68
2022/05/21 02:25:36;;;;;;;59.42;39.63;;;11.80;99.90;;;;;;5003229;28;20242;-68
2022/05/21 02:28:02;;;;;;;69.18;41.50;;;11.80;99.90;;;;;;5003342;28;20570;-68
2022/05/21 02:30:28;;;;;;;66.72;41.33;;;11.80;99.90;;;;;;5004104;28;20058;-68
2022/05/21 02:32:54;;;;;;;81.43;41.88;;;11.80;99.90;;;;;;5001883;28;20244;-68
2022/05/21 02:35:20;;;;;;;89.88;44.58;;;11.90;99.90;;;;;;4999767;28;20053;-68
2022/05/21 02:40:30;;;;;;;66.10;42.00;;;11.90;99.90;;;;;;5003520;28;20085;-68
2022/05/21 02:42:56;;;;;;;61.95;38.80;;;11.90;99.90;;;;;;5000236;28;20046;-68
2022/05/21 02:45:25;;;;;;;65.50;39.42;;;11.90;99.90;;;;;;5004399;28;20053;-68
2022/05/21 02:47:51;;;;;;;64.63;38.13;;;11.90;99.90;;;;;;5005197;28;20042;-68
2022/05/21 02:50:27;;;;;;;63.67;37.33;;;12.00;99.90;;;;;;5006928;28;20481;-68
2022/05/21 02:52:53;;;;;;;57.63;39.33;;;12.00;99.90;;;;;;5002379;28;20049;-68
2022/05/21 02:55:19;;;;;;;59.80;36.78;;;12.00;99.90;;;;;;5001551;28;20042;-68
2022/05/21 02:57:45;;;;;;;70.38;40.30;;;12.00;99.90;;;;;;4997871;28;20034;-68
2022/05/21 03:00:20;;;;;;;61.03;37.75;;;12.10;99.90;;;;;;4985451;28;20195;-68
2022/05/21 03:02:46;;;;;;;65.22;37.65;;;12.00;99.90;;;;;;5000433;28;20082;-68
2022/05/21 03:05:13;;;;;;;67.43;36.70;;;12.00;99.90;;;;;;5000748;28;20045;-68
2022/05/21 03:07:41;;;;;;;59.33;38.45;;;12.00;99.90;;;;;;5002270;28;20042;-68
2022/05/21 03:10:23;;;;;;;64.68;37.30;;;12.10;99.90;;;;;;5002409;28;20050;-68
2022/05/21 03:13:11;;;;;;;51.00;33.60;;;12.10;99.90;;;;;;5003100;28;20050;-68
2022/05/21 03:15:38;;;;;;;55.83;34.80;;;12.10;99.90;;;;;;4999550;28;20042;-68
2022/05/21 03:18:07;;;;;;;50.83;32.05;;;12.10;99.90;;;;;;5002857;28;20041;-68
2022/05/21 03:20:33;;;;;;;63.60;33.95;;;12.10;99.90;;;;;;5003891;28;20076;-68
2022/05/21 03:22:59;;;;;;;61.70;34.83;;;12.10;99.90;;;;;;5000848;28;20124;-68
2022/05/21 03:25:24;;;;;;;53.80;32.95;;;12.20;99.90;;;;;;4997647;28;20170;-68
2022/05/21 03:27:51;;;;;;;48.95;28.92;;;12.20;99.90;;;;;;4999304;28;20031;-68
2022/05/21 03:30:20;;;;;;;50.95;30.27;;;12.20;99.90;;;;;;5003168;28;20052;-68
2022/05/21 03:32:46;;;;;;;49.90;28.80;;;12.20;99.90;;;;;;5006806;28;20142;-68
2022/05/21 03:35:13;;;;;;;44.90;28.17;;;12.20;99.90;;;;;;4999838;28;20113;-68
2022/05/21 03:37:39;;;;;;;42.00;25.50;;;12.20;99.90;;;;;;5046435;28;20081;-68
2022/05/21 03:40:07;;;;;;;43.50;25.65;;;12.20;99.90;;;;;;4999732;28;20069;-68
2022/05/21 03:42:33;;;;;;;44.50;25.13;;;12.30;99.90;;;;;;5004385;28;20516;-68
2022/05/21 03:44:59;;;;;;;44.15;23.27;;;12.30;99.90;;;;;;4995315;28;20030;-68
2022/05/21 03:47:25;;;;;;;39.00;23.00;;;12.30;99.90;;;;;;5002552;28;20042;-68
2022/05/21 03:49:51;;;;;;;35.90;21.65;;;12.40;99.90;;;;;;5001673;28;20214;-68
2022/05/21 03:52:16;;;;;;;46.53;22.38;;;12.40;99.90;;;;;;5003398;28;20152;-68
2022/05/21 03:54:42;;;;;;;43.70;21.17;;;12.40;99.90;;;;;;5005546;28;20041;-68
2022/05/21 03:57:08;;;;;;;46.63;21.13;;;12.40;99.90;;;;;;5000953;28;20586;-68
2022/05/21 03:59:34;;;;;;;31.60;17.25;;;12.50;99.90;;;;;;4995725;28;20478;-68
2022/05/21 04:02:01;;;;;;;40.97;19.30;;;12.50;99.90;;;;;;4998295;28;20036;-68
2022/05/21 04:04:27;;;;;;;38.83;16.90;;;12.50;99.90;;;;;;5001297;28;20045;-68
2022/05/21 04:06:53;;;;;;;36.10;15.95;;;12.50;99.90;;;;;;4976588;28;20088;-68
2022/05/21 04:09:18;;;;;;;39.72;16.33;;;12.50;99.90;;;;;;4994068;28;20123;-67
2022/05/21 04:11:44;;;;;;;32.63;11.85;;;12.60;99.90;;;;;;4997887;28;20039;-66
2022/05/21 04:14:12;;;;;;;27.13;10.48;;;12.50;99.90;;;;;;4964921;28;20038;-67
2022/05/21 04:16:38;;;;;;;26.77;8.27;;;12.60;99.90;;;;;;4992604;28;20046;-67
2022/05/21 04:19:04;;;;;;;32.70;8.55;;;12.60;99.90;;;;;;4995309;28;20409;-67
2022/05/21 04:21:30;;;;;;;20.98;5.78;;;12.60;99.90;;;;;;4995612;28;20034;-67
2022/05/21 04:23:56;;;;;;;30.83;5.15;;;12.60;99.90;;;;;;5001590;28;20074;-67
2022/05/21 04:26:22;;;;;;;32.28;6.10;;;12.60;99.90;;;;;;4995985;28;20065;-67
2022/05/21 04:28:48;;;;;;;26.95;5.15;;;12.60;99.90;;;;;;5001116;28;20425;-67
2022/05/21 04:31:13;;;;;;;23.88;5.00;;;12.60;99.90;;;;;;4994069;28;20489;-67
2022/05/21 04:33:39;;;;;;;25.00;5.07;;;12.70;99.90;;;;;;4999108;28;20046;-67
2022/05/21 04:36:21;;;;;;;25.05;5.07;;;12.70;99.90;;;;;;4995363;28;20109;-67
2022/05/21 04:38:49;;;;;;;25.40;4.85;;;12.70;99.90;;;;;;4995588;28;20054;-68
2022/05/21 04:41:15;;;;;;;34.75;4.97;;;12.70;99.90;;;;;;4997638;28;20074;-68
2022/05/21 04:43:41;;;;;;;19.00;4.65;;;12.70;99.90;;;;;;4995865;28;20044;-68
2022/05/21 04:46:08;;;;;;;25.13;4.57;;;12.70;99.90;;;;;;4984072;28;20405;-68
2022/05/21 04:48:34;;;;;;;27.17;5.13;;;12.70;99.90;;;;;;4996092;28;20119;-67
2022/05/21 04:51:02;;;;;;;22.95;4.78;;;12.70;99.90;;;;;;4998091;28;20487;-67
2022/05/21 04:53:28;;;;;;;28.80;5.15;;;12.70;99.90;;;;;;5001006;28;20038;-67
2022/05/21 04:55:54;;;;;;;24.30;4.55;;;12.70;99.90;;;;;;5003018;28;20608;-67
2022/05/21 04:58:20;;;;;;;23.30;4.53;;;12.70;99.90;;;;;;4996382;28;20061;-67
2022/05/21 05:00:46;;;;;;;22.50;4.57;;;12.80;99.90;;;;;;4998225;28;20061;-68
2022/05/21 05:03:17;;;;;;;17.13;4.72;;;12.80;99.90;;;;;;4997208;28;20444;-68
2022/05/21 05:05:44;;;;;;;21.50;4.88;;;12.80;99.90;;;;;;4997054;28;20136;-68
2022/05/21 05:08:11;;;;;;;21.73;4.90;;;12.80;99.90;;;;;;4994350;28;20053;-68
2022/05/21 05:10:37;;;;;;;22.55;4.70;;;12.90;99.90;;;;;;5001170;28;20041;-67
2022/05/21 05:13:06;;;;;;;17.05;4.20;;;13.10;99.90;;;;;;4995638;28;20038;-68
2022/05/21 05:15:33;;;;;;;17.88;3.97;;;13.30;99.90;;;;;;5002675;28;20034;-68
2022/05/21 05:18:05;;;;;;;18.67;3.78;;;13.40;99.90;;;;;;4996262;28;20078;-68
2022/05/21 05:20:31;;;;;;;18.95;3.45;;;13.50;99.90;;;;;;4999518;28;20044;-68
2022/05/21 05:22:57;;;;;;;16.77;3.60;;;13.50;99.90;;;;;;4996610;28;20038;-68
2022/05/21 05:25:23;;;;;;;20.05;4.05;;;13.50;99.90;;;;;;4996628;28;20049;-68
2022/05/21 05:27:50;;;;;;;15.93;3.45;;;13.50;99.90;;;;;;4986648;28;20129;-68
2022/05/21 05:30:18;;;;;;;18.83;3.92;;;13.60;99.90;;;;;;4993827;28;20050;-68
2022/05/21 05:32:43;;;;;;;15.25;3.40;;;13.60;99.90;;;;;;4994591;28;20049;-68
2022/05/21 05:35:11;;;;;;;24.42;3.28;;;13.50;99.90;;;;;;5000426;28;20056;-68
2022/05/21 05:37:37;;;;;;;14.63;3.47;;;13.60;99.90;;;;;;5002756;28;20050;-68
2022/05/21 05:40:05;;;;;;;16.05;3.28;;;13.60;99.90;;;;;;4998084;28;20053;-68
2022/05/21 05:42:30;;;;;;;16.85;3.58;;;13.70;99.90;;;;;;4994980;28;20053;-68
2022/05/21 05:44:56;;;;;;;11.82;2.85;;;13.70;99.90;;;;;;4997150;28;20039;-69
2022/05/21 05:47:22;;;;;;;14.07;3.55;;;13.80;99.90;;;;;;5003592;28;20042;-69
2022/05/21 05:49:47;;;;;;;19.27;3.67;;;13.80;99.90;;;;;;4996021;28;20137;-69
2022/05/21 05:52:13;;;;;;;22.77;4.22;;;13.80;99.90;;;;;;5000412;28;20038;-69
2022/05/21 05:54:39;;;;;;;13.52;3.10;;;13.80;99.90;;;;;;4998372;28;20060;-69
2022/05/21 05:57:13;;;;;;;14.70;3.50;;;13.90;99.90;;;;;;4996813;28;20046;-69
2022/05/21 05:59:49;;;;;;;12.57;2.80;;;14.00;99.90;;;;;;4996189;28;20038;-68
2022/05/21 06:05:07;;;;;;;14.05;3.28;;;14.10;99.90;;;;;;4997432;28;20057;-67
2022/05/21 06:07:33;;;;;;;14.05;2.75;;;14.20;99.90;;;;;;4996839;28;20042;-68
2022/05/21 06:10:04;;;;;;;14.48;3.15;;;14.20;99.90;;;;;;4994517;28;20082;-68
2022/05/21 06:12:31;;;;;;;16.10;3.38;;;14.20;99.90;;;;;;4994106;28;20461;-68
2022/05/21 06:14:57;;;;;;;13.10;2.72;;;14.30;99.90;;;;;;4996245;28;20053;-68
2022/05/21 06:17:24;;;;;;;14.00;2.90;;;14.40;99.90;;;;;;4998394;28;20057;-69
2022/05/21 06:19:49;;;;;;;15.68;3.00;;;14.40;99.90;;;;;;4997090;28;20045;-68
2022/05/21 06:22:16;;;;;;;19.42;2.92;;;14.40;99.90;;;;;;4998493;28;20417;-68
2022/05/21 06:24:42;;;;;;;15.35;3.13;;;14.50;99.90;;;;;;4998202;28;20057;-68
2022/05/21 06:27:07;;;;;;;14.95;3.33;;;14.50;99.90;;;;;;5001421;28;20054;-68
2022/05/21 06:29:35;;;;;;;14.23;2.80;;;14.70;99.90;;;;;;4993052;28;20103;-68
2022/05/21 06:32:06;;;;;;;13.60;2.55;;;14.70;99.90;;;;;;5002810;28;20453;-68
2022/05/21 06:34:34;;;;;;;16.13;3.13;;;14.70;99.90;;;;;;4993070;28;20054;-68
2022/05/21 06:37:08;;;;;;;17.67;3.97;;;14.70;99.90;;;;;;4996322;28;20129;-68
2022/05/21 06:39:35;;;;;;;;;;;14.70;99.90;;;;;;5002926;28;20046;-68
2022/05/21 06:42:02;;;;;;;14.48;3.70;;;14.80;99.90;;;;;;4992644;28;19918;-68
2022/05/21 06:44:28;;;;;;;14.05;3.03;;;14.90;99.90;;;;;;4996228;28;20061;-68
2022/05/21 06:46:55;;;;;;;16.20;3.03;;;15.10;99.90;;;;;;4995063;28;20085;-68
2022/05/21 06:49:22;;;;;;;17.65;3.45;;;15.10;99.90;;;;;;4994433;28;20054;-68
2022/05/21 06:51:52;;;;;;;13.93;2.92;;;15.10;99.90;;;;;;4999925;28;20050;-69
2022/05/21 06:54:18;;;;;;;13.55;2.60;;;15.00;99.90;;;;;;5003542;28;20043;-69
2022/05/21 06:56:44;;;;;;;17.13;3.25;;;15.10;99.90;;;;;;4999078;28;20090;-69
2022/05/21 06:59:10;;;;;;;10.73;2.58;;;15.20;99.90;;;;;;4998159;28;20051;-68
2022/05/21 07:01:36;;;;;;;9.85;2.67;;;15.40;99.90;;;;;;4997330;28;20058;-69
2022/05/21 07:04:02;;;;;;;14.80;3.00;;;15.50;99.90;;;;;;5005550;28;20542;-69
2022/05/21 07:09:12;;;;;;;14.73;2.73;;;15.80;99.90;;;;;;5005658;28;20097;-68
2022/05/21 07:11:37;;;;;;;11.23;2.75;;;16.10;99.90;;;;;;5009987;28;20317;-69
2022/05/21 07:14:03;;;;;;;12.32;3.28;;;16.10;99.90;;;;;;5001612;28;20046;-69
2022/05/21 07:16:30;;;;;;;12.73;2.55;;;16.10;99.90;;;;;;5000644;28;20141;-69
2022/05/21 07:18:56;;;;;;;12.30;2.78;;;16.30;99.90;;;;;;5001767;28;20084;-69
2022/05/21 07:21:22;;;;;;;15.98;2.22;;;16.40;99.90;;;;;;5007705;28;20077;-68
2022/05/21 07:23:49;;;;;;;10.77;2.28;;;16.50;99.90;;;;;;5004573;28;20042;-69
2022/05/21 07:26:15;;;;;;;11.73;2.38;;;16.50;99.90;;;;;;5002495;28;20473;-69
2022/05/21 07:28:41;;;;;;;11.65;2.45;;;16.50;99.90;;;;;;5003326;28;20049;-69
2022/05/21 07:31:08;;;;;;;10.65;2.03;;;16.50;99.90;;;;;;5000077;28;20046;-69
2022/05/21 07:33:33;;;;;;;10.93;2.78;;;16.70;99.90;;;;;;5005489;28;20074;-69
2022/05/21 07:35:59;;;;;;;13.82;2.60;;;16.70;99.90;;;;;;5006851;28;20042;-69
2022/05/21 07:38:25;;;;;;;9.60;2.55;;;16.60;99.90;;;;;;5006179;28;20167;-69
2022/05/21 07:40:54;;;;;;;10.35;2.33;;;16.30;99.90;;;;;;5004487;28;20247;-68
2022/05/21 07:43:27;;;;;;;11.10;2.33;;;16.40;99.90;;;;;;5003706;28;20103;-69
2022/05/21 07:45:57;;;;;;;10.18;1.80;;;16.40;99.90;;;;;;5007371;28;20046;-69
2022/05/21 07:48:23;;;;;;;10.57;2.22;;;16.30;99.90;;;;;;4993712;28;20230;-69
2022/05/21 07:50:58;;;;;;;8.23;1.60;;;16.20;99.90;;;;;;4998575;28;20099;-69
2022/05/21 07:53:32;;;;;;;7.90;1.73;;;16.10;99.90;;;;;;4997159;28;20395;-69
2022/05/21 07:55:59;;;;;;;6.65;1.55;;;16.10;99.90;;;;;;5003577;28;20070;-70
2022/05/21 07:58:28;;;;;;;9.50;2.03;;;15.90;99.90;;;;;;5002073;28;20046;-69
2022/05/21 08:00:55;;;;;;;11.80;1.92;;;16.00;99.90;;;;;;5006655;28;20120;-69
2022/05/21 08:03:22;;;;;;;11.05;1.88;;;16.10;99.90;;;;;;5004737;28;20046;-69
2022/05/21 08:05:48;;;;;;;7.20;1.80;;;16.00;99.90;;;;;;5006432;28;20497;-69
2022/05/21 08:08:14;;;;;;;8.98;1.63;;;16.00;99.90;;;;;;5002903;28;20056;-69
2022/05/21 08:10:43;;;;;;;9.95;2.20;;;16.00;99.90;;;;;;5004216;28;20493;-70
2022/05/21 08:13:10;;;;;;;10.93;1.98;;;15.90;99.90;;;;;;4998275;28;20073;-70
2022/05/21 08:15:37;;;;;;;10.38;2.00;;;15.70;99.90;;;;;;5003085;28;20046;-70
2022/05/21 08:18:04;;;;;;;11.70;2.22;;;15.90;99.90;;;;;;4981029;28;20053;-70
2022/05/21 08:20:31;;;;;;;7.20;1.80;;;16.40;99.90;;;;;;4979696;28;20038;-70
2022/05/21 08:28:26;;;;;;;12.60;2.25;;;18.00;99.90;;;;;;5004397;28;20054;-71
2022/05/21 08:30:51;;;;;;;8.10;1.83;;;18.40;99.90;;;;;;5002331;28;20566;-70
2022/05/21 08:33:19;;;;;;;10.32;2.17;;;18.70;99.90;;;;;;5003986;28;20129;-71
2022/05/21 08:35:45;;;;;;;8.82;1.65;;;18.80;99.90;;;;;;5002949;28;20053;-71
2022/05/21 08:38:15;;;;;;;6.45;1.70;;;19.10;99.90;;;;;;5004333;28;20417;-71
2022/05/21 08:40:50;;;;;;;8.55;1.95;;;19.10;99.90;;;;;;5001896;28;20099;-72
2022/05/21 08:43:32;;;;;;;9.23;1.73;;;19.30;99.90;;;;;;5003345;28;20479;-71
2022/05/21 08:46:04;;;;;;;8.40;1.80;;;19.80;99.90;;;;;;4999168;28;20054;-72
2022/05/21 08:48:32;;;;;;;8.50;1.75;;;19.70;99.90;;;;;;4997382;28;20145;-72
2022/05/21 08:51:02;;;;;;;12.55;2.55;;;19.20;99.90;;;;;;4989348;28;20073;-71
2022/05/21 08:53:29;;;;;;;9.63;1.70;;;18.80;99.90;;;;;;5004564;28;20046;-71
2022/05/21 08:55:58;;;;;;;9.05;1.92;;;18.70;99.90;;;;;;4998282;28;20103;-72
2022/05/21 08:58:37;;;;;;;8.43;1.73;;;18.90;99.90;;;;;;5003877;28;20050;-72
2022/05/21 09:01:03;;;;;;;9.75;1.73;;;19.30;99.90;;;;;;5001315;28;20386;-72
2022/05/21 09:03:29;;;;;;;7.65;1.63;;;19.70;99.90;;;;;;5003536;28;20048;-71
2022/05/21 09:06:16;;;;;;;8.27;1.60;;;20.00;99.90;;;;;;4997110;28;20541;-73
2022/05/21 09:09:07;;;;;;;9.90;2.10;;;19.80;99.80;;;;;;4997181;28;20038;-73
2022/05/21 09:11:34;;;;;;;9.35;1.77;;;19.10;98.00;;;;;;4961746;28;20041;-72
2022/05/21 09:14:21;;;;;;;8.00;1.77;;;18.40;99.90;;;;;;5001957;28;20050;-72
2022/05/21 09:16:54;;;;;;;8.77;1.90;;;18.40;99.90;;;;;;4997297;28;20113;-73
2022/05/21 09:19:26;;;;;;;6.78;1.63;;;18.50;99.90;;;;;;4982327;28;20129;-72
2022/05/21 09:22:21;;;;;;;7.78;1.70;;;18.50;99.90;;;;;;4999210;28;20050;-72
2022/05/21 09:24:52;;;;;;;9.40;1.63;;;18.30;99.90;;;;;;5010485;28;20382;-72
2022/05/21 09:27:32;;;;;;;10.80;1.90;;;18.10;99.90;;;;;;4997522;28;20062;-72
2022/05/21 09:30:16;;;;;;;9.98;1.80;;;18.00;99.90;;;;;;4997883;28;20078;-72
2022/05/21 09:32:44;;;;;;;;;;;18.20;99.90;;;;;;5002437;28;20536;-72
2022/05/21 09:35:31;;;;;;;9.05;1.90;;;18.50;99.90;;;;;;5004230;28;19917;-72
2022/05/21 09:38:12;;;;;;;9.43;2.03;;;18.50;99.90;;;;;;5002442;28;20081;-73
2022/05/21 09:40:39;;;;;;;9.85;2.17;;;18.50;99.90;;;;;;4987659;28;20050;-72
2022/05/21 09:46:17;;;;;;;8.90;2.00;;;18.20;99.90;;;;;;5001002;28;20114;-72
2022/05/21 09:48:44;;;;;;;7.05;1.65;;;18.50;99.90;;;;;;5001423;28;20047;-71
2022/05/21 09:51:31;;;;;;;8.23;1.63;;;18.50;99.90;;;;;;4989163;28;20096;-72
2022/05/21 09:53:57;;;;;;;8.30;1.55;;;18.40;98.70;;;;;;5006311;28;20057;-71
2022/05/21 09:56:31;;;;;;;6.82;1.33;;;18.10;99.90;;;;;;5002836;28;20671;-72
2022/05/21 09:59:15;;;;;;;9.43;1.70;;;18.00;99.90;;;;;;5005500;28;20409;-72
2022/05/21 10:01:46;;;;;;;8.02;1.70;;;18.00;99.90;;;;;;5005788;28;20052;-72
2022/05/21 10:04:23;;;;;;;8.65;1.60;;;17.90;99.90;;;;;;4986975;28;20453;-71
2022/05/21 10:07:03;;;;;;;5.68;1.67;;;17.90;99.90;;;;;;5003760;28;20061;-72
2022/05/21 10:12:44;;;;;;;5.40;1.13;;;18.20;99.90;;;;;;5001392;28;20048;-72
2022/05/21 10:15:20;;;;;;;5.18;1.20;;;18.10;99.50;;;;;;5008021;28;20049;-70
2022/05/21 10:17:51;;;;;;;7.97;1.35;;;18.00;99.30;;;;;;5000962;28;20197;-72
2022/05/21 10:20:31;;;;;;;8.23;1.30;;;17.80;99.40;;;;;;5004573;28;20115;-71
2022/05/21 10:23:14;;;;;;;10.25;1.27;;;17.50;98.70;;;;;;5003921;28;20050;-70
2022/05/21 10:26:14;;;;;;;8.77;1.70;;;17.30;99.80;;;;;;5006605;28;20060;-71
2022/05/21 10:29:16;;;;;;;9.07;1.40;;;17.60;99.90;;;;;;5000779;28;20065;-71
2022/05/21 10:32:17;;;;;;;6.60;1.33;;;18.30;99.90;;;;;;4999229;28;20050;-71
2022/05/21 10:34:59;;;;;;;10.25;1.90;;;19.00;99.90;;;;;;5001402;28;20405;-71
2022/05/21 10:37:43;;;;;;;9.05;1.58;;;19.60;98.90;;;;;;4998726;28;20050;-71
2022/05/21 10:40:18;;;;;;;;;;;19.60;95.30;;;;;;5003271;28;20045;-72
2022/05/21 10:43:12;;;;;;;7.97;1.30;;;19.70;96.20;;;;;;5002544;28;19925;-72
2022/05/21 10:45:54;;;;;;;7.30;1.40;;;19.70;94.30;;;;;;4989529;28;20141;-71
2022/05/21 10:48:46;;;;;;;5.88;1.35;;;19.50;95.00;;;;;;5000339;28;20046;-70
2022/05/21 10:51:54;;;;;;;6.40;1.48;;;19.60;97.00;;;;;;5005396;28;20077;-69
2022/05/21 10:54:53;;;;;;;8.05;1.45;;;20.10;98.00;;;;;;5048899;28;20372;-71
2022/05/21 10:57:36;;;;;;;7.15;1.42;;;20.80;91.50;;;;;;4999896;28;20073;-69
2022/05/21 11:00:26;;;;;;;6.00;1.27;;;21.00;89.50;;;;;;5005785;28;20042;-70
2022/05/21 11:03:25;;;;;;;10.20;1.20;;;21.40;92.70;;;;;;5022471;28;20048;-70
2022/05/21 11:06:24;;;;;;;5.32;1.08;;;21.80;92.60;;;;;;5015164;28;20130;-70
2022/05/21 11:09:08;;;;;;;6.45;1.20;;;22.20;85.50;;;;;;5003142;28;20174;-70
2022/05/21 11:11:58;;;;;;;8.43;1.13;;;22.50;90.30;;;;;;5002553;28;20389;-69
2022/05/21 11:14:38;;;;;;;5.68;1.00;;;22.70;82.20;;;;;;5001838;28;20176;-69
2022/05/21 11:17:22;;;;;;;6.15;1.02;;;22.80;80.60;;;;;;5004466;28;20054;-70
2022/05/21 11:20:11;;;;;;;6.85;1.05;;;22.90;81.90;;;;;;4999784;28;20046;-70
2022/05/21 11:23:06;;;;;;;5.97;1.00;;;23.10;78.80;;;;;;5007063;28;20456;-70
2022/05/21 11:25:40;;;;;;;5.75;1.42;;;23.30;76.50;;;;;;4998520;28;20341;-69
2022/05/21 11:28:31;;;;;;;6.85;1.45;;;23.20;74.70;;;;;;5005345;28;20133;-68
2022/05/21 11:31:18;;;;;;;5.35;1.17;;;22.80;71.50;;;;;;5000378;28;20125;-69
2022/05/21 11:39:20;;;;;;;4.32;1.00;;;22.60;68.90;;;;;;5001320;28;20085;-67
2022/05/21 11:42:12;;;;;;;5.10;0.93;;;22.50;69.50;;;;;;5002441;28;20546;-67
2022/05/21 11:45:03;;;;;;;7.10;2.47;;;22.50;69.40;;;;;;5004827;28;20076;-68
2022/05/21 11:47:33;;;;;;;4.90;1.00;;;22.50;71.90;;;;;;4998603;28;20114;-68
2022/05/21 11:50:01;;;;;;;6.35;1.30;;;22.40;70.20;;;;;;5005746;28;20046;-68
2022/05/21 11:52:27;;;;;;;5.30;0.80;;;22.30;71.10;;;;;;4998295;28;20118;-70
2022/05/21 11:55:11;;;;;;;4.10;0.98;;;22.50;73.90;;;;;;4999002;28;20046;-69
2022/05/21 11:57:59;;;;;;;8.25;1.20;;;22.70;68.30;;;;;;5002249;28;20550;-69
2022/05/21 12:00:25;;;;;;;6.85;1.35;;;22.90;68.40;;;;;;4996888;28;20064;-69
2022/05/21 12:02:54;;;;;;;7.72;1.40;;;23.10;72.90;;;;;;5002328;28;20125;-69
2022/05/21 12:05:33;;;;;;;6.18;1.33;;;23.20;70.00;;;;;;5005008;28;20037;-70
2022/05/21 12:08:22;;;;;;;6.60;1.13;;;23.40;66.70;;;;;;5006156;28;20050;-68
2022/05/21 12:11:01;;;;;;;5.78;1.20;;;22.90;61.00;;;;;;5002280;28;20494;-69
2022/05/21 12:13:33;;;;;;;6.18;1.00;;;22.80;67.90;;;;;;4997360;28;20490;-70
2022/05/21 12:16:22;;;;;;;9.65;1.30;;;22.70;65.10;;;;;;4997237;28;20174;-71
2022/05/21 12:18:54;;;;;;;5.25;1.02;;;22.50;68.30;;;;;;5001595;28;20488;-71
2022/05/21 12:21:34;;;;;;;5.95;1.13;;;22.40;67.30;;;;;;5005010;28;20119;-70
2022/05/21 12:24:28;;;;;;;6.35;0.93;;;22.50;68.40;;;;;;4999163;28;20046;-71
2022/05/21 12:27:25;;;;;;;5.47;1.10;;;22.90;68.80;;;;;;5000465;28;20052;-71
2022/05/21 12:30:12;;;;;;;8.32;1.30;;;23.00;63.50;;;;;;5004150;28;20390;-71
2022/05/21 12:32:40;;;;;;;6.45;1.30;;;22.80;64.60;;;;;;4997822;28;20038;-70
2022/05/21 12:35:24;;;;;;;6.97;1.30;;;22.80;68.10;;;;;;5003528;28;20040;-71
2022/05/21 12:38:25;;;;;;;5.00;1.10;;;22.80;69.10;;;;;;4998727;28;20061;-71
2022/05/21 12:41:18;;;;;;;5.60;0.88;;;22.60;66.80;;;;;;4994569;28;20098;-70
2022/05/21 12:43:47;;;;;;;4.90;0.90;;;22.30;65.70;;;;;;4992046;28;20049;-70
2022/05/21 12:46:25;;;;;;;5.05;0.70;;;22.20;66.50;;;;;;5002188;28;20145;-70
2022/05/21 12:48:53;;;;;;;5.25;1.10;;;22.30;65.70;;;;;;4999286;28;20562;-70
2022/05/21 12:51:33;;;;;;;6.40;1.55;;;22.40;68.40;;;;;;5001424;28;20049;-70
2022/05/21 12:54:03;;;;;;;6.18;1.13;;;22.50;66.40;;;;;;4974666;28;20497;-70
2022/05/21 12:56:35;;;;;;;8.00;1.85;;;22.50;67.30;;;;;;4999435;28;20062;-71
2022/05/21 12:59:29;;;;;;;7.07;1.00;;;22.60;68.30;;;;;;5006844;28;20153;-70
2022/05/21 13:02:10;;;;;;;4.03;1.02;;;22.90;65.80;;;;;;4991815;28;20405;-71
2022/05/21 13:04:38;;;;;;;5.05;1.27;;;23.00;67.10;;;;;;4999906;28;20531;-70
2022/05/21 13:07:21;;;;;;;9.18;1.40;;;23.00;67.50;;;;;;5002647;28;20062;-70
2022/05/21 13:10:12;;;;;;;9.18;1.55;;;23.10;66.70;;;;;;5001625;28;20554;-71
2022/05/21 13:12:48;;;;;;;5.15;1.25;;;23.30;65.60;;;;;;5002917;28;20042;-70
2022/05/21 13:15:20;;;;;;;8.48;1.42;;;23.10;65.00;;;;;;5006431;28;20046;-70
2022/05/21 13:18:12;;;;;;;5.97;1.10;;;22.60;65.90;;;;;;5006586;28;20046;-70
2022/05/21 13:21:08;;;;;;;4.90;1.30;;;22.10;66.50;;;;;;5002381;28;20493;-70
2022/05/21 13:23:45;;;;;;;7.03;1.20;;;21.60;67.60;;;;;;5007760;28;20477;-70
2022/05/21 13:26:21;;;;;;;7.65;1.10;;;21.10;70.70;;;;;;5001519;28;20054;-70
2022/05/21 13:28:47;;;;;;;7.75;1.52;;;21.10;71.70;;;;;;5007875;28;20511;-69
2022/05/21 13:31:21;;;;;;;6.85;1.20;;;21.30;72.00;;;;;;5006578;28;20062;-70
2022/05/21 13:33:50;;;;;;;7.13;1.48;;;21.20;69.90;;;;;;5006198;28;20605;-70